createdAt,value
2022-07-25T00:01:49.639Z,3.75
2022-07-25T00:04:20.407Z,5.85
2022-07-25T00:06:50.756Z,3.72
2022-07-25T00:09:20.807Z,5.63
2022-07-25T00:11:53.405Z,4.55
2022-07-25T00:14:23.409Z,4.15
2022-07-25T00:16:53.446Z,5.38
2022-07-25T00:19:23.437Z,5.15
2022-07-25T00:21:53.539Z,7.13
2022-07-25T00:24:23.538Z,4.32
2022-07-25T00:26:56.258Z,4.22
2022-07-25T00:29:26.363Z,5.22
2022-07-25T00:31:56.294Z,2.65
2022-07-25T00:34:26.233Z,5.65
2022-07-25T00:36:56.213Z,4.63
2022-07-25T00:39:26.369Z,4.57
2022-07-25T00:41:58.898Z,3.67
2022-07-25T00:44:30.391Z,3.58
2022-07-25T00:47:00.812Z,6.07
2022-07-25T00:49:30.756Z,5.18
2022-07-25T00:52:01.730Z,3.90
2022-07-25T00:54:32.673Z,4.30
2022-07-25T00:57:05.272Z,8.52
2022-07-25T00:59:35.209Z,9.85
2022-07-25T01:02:05.151Z,5.40
2022-07-25T01:04:35.223Z,7.10
2022-07-25T01:07:05.530Z,5.43
2022-07-25T01:09:36.451Z,6.80
2022-07-25T01:12:09.415Z,6.43
2022-07-25T01:14:41.490Z,4.28
2022-07-25T01:17:13.442Z,5.93
2022-07-25T01:19:43.435Z,5.20
2022-07-25T01:22:15.988Z,4.97
2022-07-25T01:24:45.884Z,5.80
2022-07-25T01:27:17.449Z,5.72
2022-07-25T01:29:47.638Z,6.25
2022-07-25T01:32:17.562Z,6.28
2022-07-25T01:34:47.489Z,5.15
2022-07-25T01:37:20.071Z,3.97
2022-07-25T01:39:50.087Z,8.05
2022-07-25T01:42:20.178Z,6.03
2022-07-25T01:44:50.235Z,6.82
2022-07-25T01:47:20.185Z,4.80
2022-07-25T01:49:50.213Z,8.02
2022-07-25T01:52:22.713Z,7.65
2022-07-25T01:54:52.659Z,5.38
2022-07-25T01:57:22.584Z,7.35
2022-07-25T01:59:55.607Z,5.28
2022-07-25T02:02:25.563Z,6.22
2022-07-25T02:04:56.067Z,11.27
2022-07-25T02:07:28.701Z,10.32
2022-07-25T02:09:58.631Z,8.98
2022-07-25T02:12:28.556Z,11.07
2022-07-25T02:14:58.548Z,9.55
2022-07-25T02:17:28.707Z,11.02
2022-07-25T02:19:58.811Z,10.27
2022-07-25T02:22:32.581Z,9.90
2022-07-25T02:25:02.454Z,8.57
2022-07-25T02:27:32.431Z,6.40
2022-07-25T02:30:02.360Z,6.75
2022-07-25T02:32:32.271Z,5.47
2022-07-25T02:35:02.233Z,5.35
2022-07-25T02:37:34.756Z,6.30
2022-07-25T02:40:04.794Z,8.32
2022-07-25T02:42:34.742Z,4.15
2022-07-25T02:45:04.733Z,3.95
2022-07-25T02:47:34.730Z,6.68
2022-07-25T02:50:05.062Z,7.05
2022-07-25T02:52:40.632Z,7.63
2022-07-25T02:55:11.749Z,8.52
2022-07-25T02:57:41.859Z,6.53
2022-07-25T03:00:16.647Z,3.88
2022-07-25T03:02:47.046Z,3.47
2022-07-25T03:05:18.872Z,6.72
2022-07-25T03:07:51.431Z,5.97
2022-07-25T03:10:21.509Z,3.58
2022-07-25T03:12:51.424Z,6.07
2022-07-25T03:15:21.351Z,3.95
2022-07-25T03:17:51.345Z,5.60
2022-07-25T03:20:21.554Z,5.65
2022-07-25T03:22:54.189Z,2.35
2022-07-25T03:25:24.088Z,7.30
2022-07-25T03:27:54.064Z,6.78
2022-07-25T03:30:24.260Z,3.78
2022-07-25T03:32:57.285Z,5.13
2022-07-25T03:35:27.476Z,5.88
2022-07-25T03:38:00.201Z,5.20
2022-07-25T03:40:31.782Z,4.45
2022-07-25T03:43:01.752Z,5.20
2022-07-25T03:45:31.888Z,7.07
2022-07-25T03:48:02.225Z,4.80
2022-07-25T03:50:32.188Z,6.07
2022-07-25T03:53:04.766Z,6.43
2022-07-25T03:55:34.734Z,4.78
2022-07-25T03:58:04.668Z,4.20
2022-07-25T04:00:34.632Z,5.40
2022-07-25T04:03:04.754Z,4.10
2022-07-25T04:05:34.726Z,3.90
2022-07-25T04:08:07.909Z,5.45
2022-07-25T04:10:37.853Z,5.43
2022-07-25T04:13:08.526Z,5.05
2022-07-25T04:15:38.500Z,9.25
2022-07-25T04:18:08.758Z,6.97
2022-07-25T04:20:43.268Z,5.80
2022-07-25T04:23:15.814Z,7.03
2022-07-25T04:25:45.809Z,6.22
2022-07-25T04:28:18.292Z,4.88
2022-07-25T04:30:48.260Z,4.38
2022-07-25T04:33:18.323Z,5.57
2022-07-25T04:35:48.435Z,5.55
2022-07-25T04:38:21.046Z,5.10
2022-07-25T04:40:51.078Z,4.75
2022-07-25T04:43:23.193Z,3.55
2022-07-25T04:45:53.155Z,4.55
2022-07-25T04:48:23.345Z,3.90
2022-07-25T04:50:53.560Z,5.70
2022-07-25T04:53:26.072Z,5.82
2022-07-25T04:55:56.173Z,5.32
2022-07-25T04:58:26.107Z,4.50
2022-07-25T05:00:56.121Z,4.03
2022-07-25T05:03:26.121Z,4.47
2022-07-25T05:05:56.050Z,3.33
2022-07-25T05:08:32.345Z,5.10
2022-07-25T05:11:02.345Z,3.55
2022-07-25T05:13:32.267Z,3.22
2022-07-25T05:16:02.255Z,4.15
2022-07-25T05:18:32.185Z,5.20
2022-07-25T05:21:02.161Z,8.55
2022-07-25T05:23:34.732Z,4.68
2022-07-25T05:26:04.714Z,6.32
2022-07-25T05:28:37.672Z,4.78
2022-07-25T05:31:07.784Z,4.80
2022-07-25T05:33:37.921Z,6.38
2022-07-25T05:36:09.232Z,5.38
2022-07-25T05:38:41.807Z,3.85
2022-07-25T05:41:11.738Z,6.43
2022-07-25T05:43:47.182Z,3.58
2022-07-25T05:46:18.193Z,2.33
2022-07-25T05:48:50.986Z,3.75
2022-07-25T05:51:20.994Z,4.78
2022-07-25T05:53:53.555Z,3.58
2022-07-25T05:56:23.527Z,4.10
2022-07-25T05:58:53.518Z,4.03
2022-07-25T06:01:23.533Z,3.25
2022-07-25T06:03:53.498Z,3.03
2022-07-25T06:06:23.451Z,3.83
2022-07-25T06:08:58.664Z,2.50
2022-07-25T06:11:31.029Z,3.38
2022-07-25T06:14:01.303Z,3.17
2022-07-25T06:16:31.874Z,4.07
2022-07-25T06:19:01.875Z,3.50
2022-07-25T06:21:31.879Z,2.60
2022-07-25T06:24:04.785Z,5.88
2022-07-25T06:26:34.986Z,4.65
2022-07-25T06:29:04.920Z,5.15
2022-07-25T06:31:34.919Z,3.17
2022-07-25T06:34:05.272Z,3.83
2022-07-25T06:36:35.418Z,4.05
2022-07-25T06:39:08.009Z,3.35
2022-07-25T06:41:38.435Z,8.02
2022-07-25T06:44:08.846Z,2.10
2022-07-25T06:46:38.972Z,3.42
2022-07-25T06:49:15.009Z,5.28
2022-07-25T06:51:45.017Z,2.95
2022-07-25T06:54:18.724Z,3.42
2022-07-25T06:56:49.111Z,2.88
2022-07-25T06:59:19.049Z,2.92
2022-07-25T07:01:51.677Z,4.03
2022-07-25T07:04:21.907Z,3.88
2022-07-25T07:06:51.862Z,2.15
2022-07-25T07:09:27.619Z,4.45
2022-07-25T07:11:57.570Z,3.47
2022-07-25T07:14:27.551Z,2.53
2022-07-25T07:16:57.976Z,2.95
2022-07-25T07:19:31.062Z,3.78
2022-07-25T07:22:00.993Z,3.40
2022-07-25T07:24:33.505Z,2.97
2022-07-25T07:27:03.680Z,3.92
2022-07-25T07:29:33.787Z,2.67
2022-07-25T07:32:04.241Z,3.75
2022-07-25T07:34:34.215Z,4.38
2022-07-25T07:37:04.186Z,3.30
2022-07-25T07:39:36.757Z,2.78
2022-07-25T07:42:07.160Z,2.33
2022-07-25T07:44:37.116Z,2.97
2022-07-25T07:47:07.193Z,2.67
2022-07-25T07:49:49.811Z,5.25
2022-07-25T07:52:20.287Z,2.63
2022-07-25T07:55:05.196Z,2.80
2022-07-25T07:57:35.163Z,2.75
2022-07-25T08:00:08.163Z,2.75
2022-07-25T08:02:46.562Z,2.08
2022-07-25T08:05:22.433Z,2.58
2022-07-25T08:07:53.648Z,2.28
2022-07-25T08:10:29.355Z,1.73
2022-07-25T08:13:00.187Z,2.13
2022-07-25T08:15:30.880Z,5.15
2022-07-25T08:18:04.924Z,3.25
2022-07-25T08:20:47.600Z,6.13
2022-07-25T08:23:17.797Z,4.03
2022-07-25T08:25:52.177Z,2.92
2022-07-25T08:28:23.124Z,3.25
2022-07-25T08:30:53.214Z,6.07
2022-07-25T08:33:26.284Z,2.85
2022-07-25T08:35:58.988Z,3.20
2022-07-25T08:38:35.510Z,5.22
2022-07-25T08:41:08.642Z,2.65
2022-07-25T08:43:40.629Z,4.57
2022-07-25T08:46:13.906Z,4.82
2022-07-25T08:48:44.775Z,2.78
2022-07-25T08:51:15.036Z,3.45
2022-07-25T08:53:48.488Z,2.10
2022-07-25T08:56:21.575Z,4.13
2022-07-25T08:58:52.100Z,2.95
2022-07-25T09:01:22.565Z,2.28
2022-07-25T09:03:52.647Z,4.00
2022-07-25T09:06:24.710Z,2.42
2022-07-25T09:09:00.510Z,2.53
2022-07-25T09:11:35.884Z,2.83
2022-07-25T09:14:09.134Z,2.67
2022-07-25T09:16:41.294Z,2.50
2022-07-25T09:19:16.486Z,2.00
2022-07-25T09:22:00.595Z,4.35
2022-07-25T09:24:31.130Z,4.00
2022-07-25T09:27:12.787Z,1.98
2022-07-25T09:29:44.743Z,2.33
2022-07-25T09:32:23.045Z,2.30
2022-07-25T09:37:29.179Z,3.22
2022-07-25T09:39:59.190Z,2.05
2022-07-25T09:42:36.377Z,2.42
2022-07-25T09:45:11.466Z,2.78
2022-07-25T09:47:52.766Z,1.48
2022-07-25T09:50:23.702Z,2.03
2022-07-25T09:52:57.231Z,1.60
2022-07-25T09:55:27.780Z,2.22
2022-07-25T09:58:00.371Z,1.85
2022-07-25T10:00:34.746Z,2.72
2022-07-25T10:03:21.118Z,1.63
2022-07-25T10:06:05.252Z,1.27
2022-07-25T10:08:39.050Z,1.42
2022-07-25T10:11:21.005Z,2.45
2022-07-25T10:13:54.241Z,1.63
2022-07-25T10:16:26.152Z,1.25
2022-07-25T10:18:58.311Z,2.50
2022-07-25T10:21:32.891Z,1.98
2022-07-25T10:24:07.901Z,3.25
2022-07-25T10:26:55.028Z,2.47
2022-07-25T10:29:37.506Z,1.55
2022-07-25T10:32:14.879Z,1.80
2022-07-25T10:34:55.839Z,2.13
2022-07-25T10:37:32.692Z,1.88
2022-07-25T10:40:04.122Z,2.15
2022-07-25T10:42:37.277Z,2.53
2022-07-25T10:45:11.799Z,2.40
2022-07-25T10:47:43.253Z,1.33
2022-07-25T10:50:29.292Z,4.43
2022-07-25T10:53:09.318Z,3.22
2022-07-25T10:55:40.073Z,3.53
2022-07-25T10:58:18.270Z,1.92
2022-07-25T11:00:52.741Z,2.08
2022-07-25T11:03:23.634Z,2.22
2022-07-25T11:05:54.843Z,2.22
2022-07-25T11:08:34.500Z,6.28
2022-07-25T11:11:04.564Z,2.67
2022-07-25T11:13:40.084Z,2.55
2022-07-25T11:16:13.295Z,1.70
2022-07-25T11:18:45.333Z,2.60
2022-07-25T11:21:15.283Z,2.97
2022-07-25T11:23:53.281Z,2.00
2022-07-25T11:26:23.329Z,1.75
2022-07-25T11:28:53.683Z,1.77
2022-07-25T11:31:27.790Z,2.10
2022-07-25T11:33:58.014Z,3.17
2022-07-25T11:36:28.068Z,1.83
2022-07-25T11:38:58.022Z,3.15
2022-07-25T11:41:35.136Z,5.45
2022-07-25T11:44:05.689Z,2.47
2022-07-25T11:46:47.901Z,2.30
2022-07-25T11:49:17.926Z,3.45
2022-07-25T11:51:47.893Z,3.10
2022-07-25T11:54:20.377Z,7.00
2022-07-25T11:56:50.380Z,1.83
2022-07-25T11:59:20.313Z,2.00
2022-07-25T12:01:53.023Z,1.73
2022-07-25T12:04:23.854Z,3.78
2022-07-25T12:06:53.832Z,2.95
2022-07-25T12:09:25.087Z,2.17
2022-07-25T12:12:06.085Z,3.22
2022-07-25T12:14:45.599Z,1.80
2022-07-25T12:17:18.359Z,2.70
2022-07-25T12:19:48.910Z,2.15
2022-07-25T12:22:18.831Z,3.13
2022-07-25T12:24:48.708Z,2.33
2022-07-25T12:27:18.653Z,2.80
2022-07-25T12:29:48.612Z,2.83
2022-07-25T12:32:21.135Z,1.67
2022-07-25T12:34:51.089Z,3.97
2022-07-25T12:37:30.771Z,3.63
2022-07-25T12:40:01.454Z,3.50
2022-07-25T12:42:31.616Z,2.00
2022-07-25T12:45:01.695Z,1.73
2022-07-25T12:47:34.351Z,2.40
2022-07-25T12:50:04.358Z,3.22
2022-07-25T12:52:34.445Z,1.75
2022-07-25T12:55:04.451Z,1.33
2022-07-25T12:57:35.129Z,1.92
2022-07-25T13:00:11.122Z,5.00
2022-07-25T13:02:44.161Z,1.92
2022-07-25T13:05:17.258Z,2.13
2022-07-25T13:07:51.698Z,2.53
2022-07-25T13:10:22.622Z,1.98
2022-07-25T13:12:52.570Z,4.20
2022-07-25T13:15:23.583Z,2.42
2022-07-25T13:17:56.194Z,1.58
2022-07-25T13:20:26.443Z,2.67
2022-07-25T13:22:56.550Z,1.75
2022-07-25T13:25:26.546Z,1.10
2022-07-25T13:27:56.496Z,2.13
2022-07-25T13:30:26.678Z,3.00
2022-07-25T13:32:59.424Z,1.50
2022-07-25T13:35:35.071Z,2.45
2022-07-25T13:38:08.340Z,6.07
2022-07-25T13:40:41.925Z,7.32
2022-07-25T13:43:12.276Z,3.30
2022-07-25T13:45:43.249Z,1.30
2022-07-25T13:48:31.695Z,3.55
2022-07-25T13:51:02.399Z,3.90
2022-07-25T13:53:32.439Z,2.55
2022-07-25T13:56:05.142Z,3.78
2022-07-25T13:58:35.311Z,1.65
2022-07-25T14:01:05.575Z,1.38
2022-07-25T14:03:38.781Z,2.28
2022-07-25T14:06:13.165Z,2.08
2022-07-25T14:08:43.669Z,1.90
2022-07-25T14:11:13.735Z,1.20
2022-07-25T14:13:43.729Z,1.42
2022-07-25T14:16:14.639Z,2.65
2022-07-25T14:18:47.443Z,2.15
2022-07-25T14:21:17.409Z,1.50
2022-07-25T14:23:47.360Z,1.75
2022-07-25T14:26:20.159Z,3.13
2022-07-25T14:28:50.034Z,2.53
2022-07-25T14:31:21.453Z,1.90
2022-07-25T14:33:54.548Z,1.50
2022-07-25T14:36:24.537Z,2.63
2022-07-25T14:38:54.558Z,5.40
2022-07-25T14:41:24.508Z,1.38
2022-07-25T14:43:54.497Z,2.13
2022-07-25T14:46:24.853Z,2.80
2022-07-25T14:48:57.656Z,1.92
2022-07-25T14:51:28.658Z,2.95
2022-07-25T14:53:58.732Z,8.93
2022-07-25T14:56:29.093Z,10.25
2022-07-25T14:59:01.894Z,3.55
2022-07-25T15:01:31.927Z,1.67
2022-07-25T15:04:04.588Z,6.90
2022-07-25T15:06:35.006Z,5.20
2022-07-25T15:09:08.167Z,2.72
2022-07-25T15:11:38.365Z,6.43
2022-07-25T15:14:08.326Z,1.95
2022-07-25T15:16:38.472Z,7.28
2022-07-25T15:19:16.578Z,2.10
2022-07-25T15:21:48.129Z,6.25
2022-07-25T15:24:18.061Z,5.50
2022-07-25T15:26:50.909Z,1.65
2022-07-25T15:29:21.482Z,4.45
2022-07-25T15:31:51.927Z,2.53
2022-07-25T15:34:27.417Z,5.18
2022-07-25T15:36:57.578Z,3.42
2022-07-25T15:39:27.538Z,3.60
2022-07-25T15:42:00.219Z,1.90
2022-07-25T15:44:33.301Z,3.53
2022-07-25T15:47:03.339Z,3.38
2022-07-25T15:49:39.141Z,3.38
2022-07-25T15:52:09.447Z,4.05
2022-07-25T15:54:39.340Z,2.80
2022-07-25T15:57:09.836Z,4.22
2022-07-25T15:59:39.754Z,3.15
2022-07-25T16:02:13.268Z,2.80
2022-07-25T16:04:48.673Z,1.92
2022-07-25T16:07:18.726Z,5.50
2022-07-25T16:09:49.812Z,2.67
2022-07-25T16:12:26.518Z,4.03
2022-07-25T16:14:58.324Z,3.40
2022-07-25T16:17:28.806Z,3.22
2022-07-25T16:20:01.478Z,3.08
2022-07-25T16:22:31.462Z,10.55
2022-07-25T16:25:04.631Z,4.32
2022-07-25T16:27:34.993Z,7.28
2022-07-25T16:30:05.235Z,8.10
2022-07-25T16:32:35.173Z,4.32
2022-07-25T16:35:08.811Z,3.88
2022-07-25T16:37:42.811Z,4.97
2022-07-25T16:40:16.119Z,3.58
2022-07-25T16:42:48.925Z,3.45
2022-07-25T16:45:19.012Z,5.07
2022-07-25T16:47:49.003Z,3.85
2022-07-25T16:50:21.627Z,5.15
2022-07-25T16:52:51.652Z,4.10
2022-07-25T16:55:24.415Z,3.92
2022-07-25T16:57:58.125Z,3.22
2022-07-25T17:00:31.148Z,3.45
2022-07-25T17:03:01.370Z,3.35
2022-07-25T17:05:36.728Z,3.72
2022-07-25T17:08:09.446Z,4.43
2022-07-25T17:10:39.349Z,4.13
2022-07-25T17:13:15.468Z,5.22
2022-07-25T17:15:46.544Z,5.88
2022-07-25T17:18:17.013Z,4.07
2022-07-25T17:20:49.638Z,7.63
2022-07-25T17:23:19.590Z,6.22
2022-07-25T17:25:50.706Z,4.72
2022-07-25T17:28:20.831Z,7.03
2022-07-25T17:30:53.605Z,4.63
2022-07-25T17:33:29.436Z,6.25
2022-07-25T17:36:02.408Z,8.00
2022-07-25T17:38:35.552Z,6.25
2022-07-25T17:41:05.607Z,6.25
2022-07-25T17:43:38.769Z,3.88
2022-07-25T17:46:11.120Z,9.23
2022-07-25T17:48:41.213Z,4.53
2022-07-25T17:51:13.847Z,3.65
2022-07-25T17:53:46.711Z,4.53
2022-07-25T17:56:16.707Z,5.50
2022-07-25T17:58:46.730Z,3.80
2022-07-25T18:01:16.741Z,5.22
2022-07-25T18:03:47.678Z,3.47
2022-07-25T18:06:20.472Z,3.53
2022-07-25T18:08:50.467Z,5.10
2022-07-25T18:11:20.432Z,6.75
2022-07-25T18:13:50.419Z,7.65
2022-07-25T18:16:23.552Z,6.80
2022-07-25T18:18:53.601Z,5.28
2022-07-25T18:21:26.638Z,4.82
2022-07-25T18:23:56.564Z,4.07
2022-07-25T18:26:28.404Z,8.32
2022-07-25T18:28:58.600Z,4.53
2022-07-25T18:31:31.430Z,4.53
2022-07-25T18:34:01.537Z,6.10
2022-07-25T18:36:34.115Z,7.68
2022-07-25T18:39:04.193Z,8.18
2022-07-25T18:41:37.721Z,7.43
2022-07-25T18:44:08.603Z,9.45
2022-07-25T18:46:39.109Z,6.57
2022-07-25T18:49:14.179Z,5.05
2022-07-25T18:51:46.757Z,6.30
2022-07-25T18:54:16.728Z,4.20
2022-07-25T18:56:47.306Z,6.15
2022-07-25T18:59:18.024Z,8.77
2022-07-25T19:01:48.051Z,6.70
2022-07-25T19:04:18.400Z,12.38
2022-07-25T19:06:51.037Z,7.55
2022-07-25T19:09:20.993Z,7.70
2022-07-25T19:11:51.035Z,9.40
2022-07-25T19:14:23.304Z,9.32
2022-07-25T19:16:53.330Z,6.50
2022-07-25T19:19:26.170Z,6.78
2022-07-25T19:21:58.994Z,6.35
2022-07-25T19:24:29.204Z,5.07
2022-07-25T19:26:59.170Z,4.45
2022-07-25T19:29:29.557Z,7.00
2022-07-25T19:31:59.521Z,6.03
2022-07-25T19:34:29.554Z,6.40
2022-07-25T19:37:02.153Z,6.63
2022-07-25T19:39:32.112Z,4.93
2022-07-25T19:42:02.193Z,6.97
2022-07-25T19:44:32.132Z,6.13
2022-07-25T19:47:11.292Z,6.00
2022-07-25T19:49:42.826Z,6.82
2022-07-25T19:52:15.379Z,8.00
2022-07-25T19:54:48.721Z,8.65
2022-07-25T19:57:18.839Z,9.15
2022-07-25T19:59:48.765Z,10.75
2022-07-25T20:02:18.822Z,9.00
2022-07-25T20:04:51.714Z,9.88
2022-07-25T20:07:24.878Z,9.70
2022-07-25T20:09:55.029Z,8.02
2022-07-25T20:12:28.402Z,9.48
2022-07-25T20:14:58.394Z,11.45
2022-07-25T20:17:28.611Z,9.27
2022-07-25T20:20:01.440Z,8.00
2022-07-25T20:22:40.356Z,8.25
2022-07-25T20:27:43.838Z,8.45
2022-07-25T20:30:17.249Z,7.57
2022-07-25T20:32:47.249Z,7.20
2022-07-25T20:35:17.341Z,7.43
2022-07-25T20:37:49.889Z,6.38
2022-07-25T20:40:21.012Z,7.63
2022-07-25T20:42:51.261Z,6.82
2022-07-25T20:45:23.930Z,9.32
2022-07-25T20:47:54.175Z,8.65
2022-07-25T20:50:24.319Z,8.82
2022-07-25T20:52:56.886Z,8.55
2022-07-25T20:55:28.539Z,8.65
2022-07-25T20:57:58.720Z,8.13
2022-07-25T21:00:30.740Z,9.43
2022-07-25T21:03:02.020Z,6.88
2022-07-25T21:05:32.174Z,6.90
2022-07-25T21:08:04.686Z,9.15
2022-07-25T21:10:34.860Z,14.65
2022-07-25T21:13:07.842Z,10.68
2022-07-25T21:15:41.148Z,9.27
2022-07-25T21:18:13.919Z,9.40
2022-07-25T21:20:48.439Z,15.10
2022-07-25T21:23:21.065Z,7.80
2022-07-25T21:25:51.330Z,7.88
2022-07-25T21:28:33.607Z,8.90
2022-07-25T21:31:03.637Z,7.75
2022-07-25T21:33:33.615Z,7.95
2022-07-25T21:36:03.559Z,10.32
2022-07-25T21:38:37.208Z,6.97
2022-07-25T21:41:10.025Z,7.72
2022-07-25T21:43:40.008Z,7.32
2022-07-25T21:46:09.986Z,7.30
2022-07-25T21:48:52.477Z,7.78
2022-07-25T21:51:36.820Z,6.72
2022-07-25T21:54:14.715Z,8.13
2022-07-25T21:56:44.620Z,7.20
2022-07-25T21:59:17.285Z,10.02
2022-07-25T22:04:34.561Z,9.60
2022-07-25T22:07:10.721Z,10.73
2022-07-25T22:09:43.372Z,9.02
2022-07-25T22:12:13.423Z,8.93
2022-07-25T22:14:43.413Z,9.40
2022-07-25T22:17:13.812Z,8.45
2022-07-25T22:19:46.653Z,8.52
2022-07-25T22:22:16.784Z,8.70
2022-07-25T22:24:49.399Z,9.93
2022-07-25T22:27:22.112Z,12.38
2022-07-25T22:29:52.115Z,8.68
2022-07-25T22:32:22.241Z,8.32
2022-07-25T22:34:55.166Z,9.77
2022-07-25T22:37:25.213Z,9.43
2022-07-25T22:40:00.925Z,12.02
2022-07-25T22:42:31.491Z,8.27
2022-07-25T22:45:04.354Z,11.50
2022-07-25T22:47:34.491Z,8.63
2022-07-25T22:50:04.519Z,8.73
2022-07-25T22:52:35.174Z,12.77
2022-07-25T22:55:08.667Z,9.82
2022-07-25T22:57:38.739Z,10.40
2022-07-25T23:00:11.792Z,12.68
2022-07-25T23:02:42.200Z,10.02
2022-07-25T23:05:16.281Z,11.50
2022-07-25T23:07:46.596Z,10.18
2022-07-25T23:10:19.614Z,12.05
2022-07-25T23:12:49.848Z,12.50
2022-07-25T23:15:19.787Z,12.43
2022-07-25T23:17:49.753Z,12.68
2022-07-25T23:20:19.721Z,11.45
2022-07-25T23:22:52.592Z,12.00
2022-07-25T23:25:29.627Z,9.23
2022-07-25T23:27:59.668Z,15.00
2022-07-25T23:30:29.581Z,12.00
2022-07-25T23:32:59.721Z,11.15
2022-07-25T23:35:30.722Z,9.15
2022-07-25T23:38:09.444Z,9.55
2022-07-25T23:40:42.025Z,9.30
2022-07-25T23:43:11.979Z,9.48
2022-07-25T23:48:27.482Z,12.93
2022-07-25T23:50:57.455Z,10.93
2022-07-25T23:53:30.121Z,10.05
2022-07-25T23:56:02.684Z,11.52
2022-07-25T23:58:41.893Z,13.20
